createdAt,value
2019-05-09T00:02:17.471Z,5.80
2019-05-09T00:04:45.797Z,6.63
2019-05-09T00:07:15.120Z,4.97
2019-05-09T00:09:44.142Z,6.30
2019-05-09T00:12:14.209Z,5.50
2019-05-09T00:14:43.498Z,9.13
2019-05-09T00:17:14.069Z,9.00
2019-05-09T00:19:43.867Z,11.17
2019-05-09T00:22:13.708Z,10.37
2019-05-09T00:24:44.565Z,10.23
2019-05-09T00:27:14.149Z,10.83
2019-05-09T00:29:46.322Z,12.73
2019-05-09T00:32:40.614Z,10.37
2019-05-09T00:35:36.641Z,11.63
2019-05-09T00:38:09.524Z,10.13
2019-05-09T00:40:51.605Z,12.17
2019-05-09T00:43:08.589Z,14.80
2019-05-09T00:46:05.791Z,10.93
2019-05-09T00:48:41.235Z,10.60
2019-05-09T00:51:10.169Z,14.73
2019-05-09T00:53:38.433Z,10.97
2019-05-09T00:56:06.929Z,13.17
2019-05-09T00:58:35.277Z,10.80
2019-05-09T01:01:04.455Z,9.80
2019-05-09T01:03:34.072Z,9.63
2019-05-09T01:06:04.252Z,10.10
2019-05-09T01:08:33.648Z,15.80
2019-05-09T01:11:11.798Z,11.57
2019-05-09T01:13:34.183Z,10.70
2019-05-09T01:16:04.593Z,11.20
2019-05-09T01:18:33.150Z,11.73
2019-05-09T01:21:03.731Z,11.87
2019-05-09T01:23:34.304Z,14.53
2019-05-09T01:26:03.887Z,14.53
2019-05-09T01:28:33.840Z,14.90
2019-05-09T01:31:04.097Z,12.60
2019-05-09T01:33:40.315Z,15.53
2019-05-09T01:36:09.254Z,15.70
2019-05-09T01:38:37.879Z,14.50
2019-05-09T01:41:06.281Z,13.47
2019-05-09T01:43:35.059Z,13.77
2019-05-09T01:46:04.033Z,14.30
2019-05-09T01:48:34.119Z,16.87
2019-05-09T01:51:03.346Z,13.07
2019-05-09T01:53:34.436Z,15.27
2019-05-09T01:56:03.645Z,14.47
2019-05-09T01:58:34.272Z,17.97
2019-05-09T02:01:04.745Z,14.30
2019-05-09T02:03:33.659Z,14.83
2019-05-09T02:06:03.469Z,18.67
2019-05-09T02:08:34.566Z,16.07
2019-05-09T02:11:03.824Z,20.20
2019-05-09T02:13:34.123Z,17.03
2019-05-09T02:16:23.921Z,16.00
2019-05-09T02:19:13.592Z,12.93
2019-05-09T02:21:43.752Z,17.00
2019-05-09T02:24:14.132Z,13.27
2019-05-09T02:26:43.918Z,18.47
2019-05-09T02:29:13.813Z,17.77
2019-05-09T02:31:44.562Z,15.27
2019-05-09T02:34:14.956Z,19.10
2019-05-09T02:36:43.737Z,16.20
2019-05-09T02:39:12.505Z,16.93
2019-05-09T02:41:59.496Z,16.33
2019-05-09T02:44:12.030Z,15.07
2019-05-09T02:47:00.373Z,15.70
2019-05-09T02:49:29.210Z,17.93
2019-05-09T02:51:59.255Z,17.70
2019-05-09T02:54:29.742Z,13.93
2019-05-09T02:56:58.646Z,17.33
2019-05-09T02:59:34.104Z,14.80
2019-05-09T03:02:10.308Z,14.07
2019-05-09T03:04:39.311Z,13.57
2019-05-09T03:07:09.685Z,12.93
2019-05-09T03:09:38.957Z,12.13
2019-05-09T03:12:22.574Z,12.23
2019-05-09T03:14:38.931Z,12.47
2019-05-09T03:17:08.813Z,11.27
2019-05-09T03:19:38.788Z,12.73
2019-05-09T03:22:13.061Z,12.67
2019-05-09T03:24:41.567Z,11.90
2019-05-09T03:27:18.707Z,15.40
2019-05-09T03:29:50.403Z,16.60
2019-05-09T03:32:19.668Z,15.63
2019-05-09T03:34:48.561Z,15.23
2019-05-09T03:37:17.613Z,15.83
2019-05-09T03:39:47.857Z,16.17
2019-05-09T03:42:21.416Z,20.10
2019-05-09T03:44:48.381Z,17.57
2019-05-09T03:47:42.610Z,17.27
2019-05-09T03:50:17.740Z,16.87
2019-05-09T03:52:47.764Z,17.67
2019-05-09T03:55:36.195Z,20.00
2019-05-09T03:58:24.249Z,15.67
2019-05-09T04:00:52.641Z,15.63
2019-05-09T04:03:22.295Z,15.57
2019-05-09T04:05:58.691Z,14.20
2019-05-09T04:08:21.458Z,14.93
2019-05-09T04:10:50.719Z,17.80
2019-05-09T04:13:20.362Z,14.03
2019-05-09T04:15:49.353Z,16.47
2019-05-09T04:18:18.407Z,16.20
2019-05-09T04:20:48.227Z,25.27
2019-05-09T04:23:18.762Z,16.67
2019-05-09T04:25:53.803Z,16.27
2019-05-09T04:28:22.285Z,13.93
2019-05-09T04:30:50.889Z,18.10
2019-05-09T04:33:20.967Z,15.60
2019-05-09T04:35:49.651Z,15.30
2019-05-09T04:38:18.293Z,16.83
2019-05-09T04:40:48.778Z,14.80
2019-05-09T04:43:26.741Z,15.10
2019-05-09T04:45:57.927Z,13.37
2019-05-09T04:48:30.171Z,17.37
2019-05-09T04:50:59.446Z,9.97
2019-05-09T04:53:28.613Z,10.60
2019-05-09T04:55:59.048Z,12.07
2019-05-09T04:58:27.435Z,11.83
2019-05-09T05:01:09.382Z,10.13
2019-05-09T05:03:38.494Z,7.97
2019-05-09T05:06:07.681Z,6.90
2019-05-09T05:08:37.532Z,10.73
2019-05-09T05:11:07.551Z,9.60
2019-05-09T05:13:38.372Z,9.47
2019-05-09T05:16:08.391Z,12.13
2019-05-09T05:18:37.450Z,11.87
2019-05-09T05:21:07.820Z,13.63
2019-05-09T05:23:57.594Z,13.33
2019-05-09T05:26:27.663Z,10.30
2019-05-09T05:28:58.038Z,14.10
2019-05-09T05:31:28.566Z,11.17
2019-05-09T05:34:10.570Z,10.73
2019-05-09T05:36:39.053Z,14.73
2019-05-09T05:39:08.354Z,16.00
2019-05-09T05:41:37.789Z,13.10
2019-05-09T05:44:08.354Z,12.73
2019-05-09T05:46:59.150Z,13.70
2019-05-09T05:49:28.027Z,12.37
2019-05-09T05:51:57.667Z,13.30
2019-05-09T05:54:27.736Z,11.27
2019-05-09T05:56:57.870Z,11.30
2019-05-09T05:59:28.596Z,6.67
2019-05-09T06:01:58.510Z,5.80
2019-05-09T06:04:27.709Z,8.83
2019-05-09T06:06:58.627Z,2.93
2019-05-09T06:09:28.041Z,4.93
2019-05-09T06:11:57.789Z,3.43
2019-05-09T06:14:28.542Z,2.33
2019-05-09T06:16:58.719Z,5.73
2019-05-09T06:19:28.599Z,5.67
2019-05-09T06:21:57.593Z,1.97
2019-05-09T06:24:28.215Z,2.33
2019-05-09T06:26:58.408Z,3.03
2019-05-09T06:29:28.568Z,3.63
2019-05-09T06:31:58.460Z,4.30
2019-05-09T06:34:27.806Z,2.83
2019-05-09T06:36:58.523Z,5.70
2019-05-09T06:39:28.508Z,2.90
2019-05-09T06:41:57.678Z,4.73
2019-05-09T06:44:34.310Z,4.93
2019-05-09T06:47:27.757Z,3.17
2019-05-09T06:49:57.739Z,4.05
2019-05-09T06:52:28.182Z,3.80
2019-05-09T06:54:58.233Z,2.50
2019-05-09T06:57:28.118Z,3.80
2019-05-09T06:59:57.906Z,8.90
2019-05-09T07:02:35.257Z,3.70
2019-05-09T07:05:13.083Z,3.13
2019-05-09T07:08:00.627Z,8.20
2019-05-09T07:10:31.063Z,5.87
2019-05-09T07:12:59.886Z,3.87
2019-05-09T07:15:28.750Z,4.60
2019-05-09T07:17:57.615Z,3.53
2019-05-09T07:20:28.334Z,6.40
2019-05-09T07:22:58.241Z,5.33
2019-05-09T07:25:39.422Z,4.30
2019-05-09T07:28:07.852Z,3.03
2019-05-09T07:31:07.523Z,2.90
2019-05-09T07:33:47.570Z,4.13
2019-05-09T07:36:16.077Z,6.27
2019-05-09T07:38:44.714Z,4.30
2019-05-09T07:41:13.039Z,6.93
2019-05-09T07:43:41.407Z,7.67
2019-05-09T07:46:28.810Z,2.50
2019-05-09T07:48:58.494Z,6.83
2019-05-09T07:51:27.681Z,4.40
2019-05-09T07:53:58.703Z,4.63
2019-05-09T07:56:28.456Z,6.20
2019-05-09T07:58:58.530Z,3.67
2019-05-09T08:01:28.179Z,4.23
2019-05-09T08:03:58.375Z,3.00
2019-05-09T08:06:28.735Z,4.70
2019-05-09T08:08:58.808Z,4.47
2019-05-09T08:11:28.720Z,4.53
2019-05-09T08:13:58.134Z,4.47
2019-05-09T08:16:27.938Z,7.23
2019-05-09T08:18:57.782Z,2.30
2019-05-09T08:21:27.669Z,6.20
2019-05-09T08:23:57.829Z,6.70
2019-05-09T08:26:29.779Z,7.77
2019-05-09T08:28:58.430Z,5.03
2019-05-09T08:31:28.038Z,8.10
2019-05-09T08:33:59.247Z,4.17
2019-05-09T08:36:28.158Z,5.20
2019-05-09T08:38:58.672Z,4.80
2019-05-09T08:41:29.133Z,7.10
2019-05-09T08:43:57.705Z,7.80
2019-05-09T08:46:28.645Z,5.03
2019-05-09T08:48:57.751Z,6.00
2019-05-09T08:52:04.761Z,6.17
2019-05-09T08:54:34.442Z,4.90
2019-05-09T08:57:03.370Z,4.43
2019-05-09T08:59:32.106Z,8.80
2019-05-09T09:02:14.746Z,5.27
2019-05-09T09:04:31.326Z,6.43
2019-05-09T09:07:00.021Z,5.33
2019-05-09T09:09:28.758Z,2.23
2019-05-09T09:11:58.322Z,3.00
2019-05-09T09:14:27.974Z,8.43
2019-05-09T09:16:57.579Z,4.80
2019-05-09T09:19:28.009Z,4.37
2019-05-09T09:22:09.805Z,10.00
2019-05-09T09:24:44.575Z,8.03
2019-05-09T09:27:13.397Z,2.30
2019-05-09T09:29:43.102Z,4.90
2019-05-09T09:32:11.903Z,4.50
2019-05-09T09:34:40.361Z,5.10
2019-05-09T09:37:11.421Z,8.27
2019-05-09T09:39:44.368Z,7.67
2019-05-09T09:42:09.374Z,6.07
2019-05-09T09:44:39.342Z,6.10
2019-05-09T09:47:07.989Z,7.93
2019-05-09T09:49:38.163Z,5.93
2019-05-09T09:52:08.561Z,8.27
2019-05-09T09:54:38.580Z,5.80
2019-05-09T09:57:09.723Z,6.20
2019-05-09T09:59:56.151Z,6.33
2019-05-09T10:02:29.858Z,7.70
2019-05-09T10:04:58.426Z,9.63
2019-05-09T10:07:27.927Z,8.23
2019-05-09T10:09:58.417Z,6.83
2019-05-09T10:12:28.588Z,9.60
2019-05-09T10:15:04.153Z,7.07
2019-05-09T10:17:42.471Z,10.03
2019-05-09T10:20:39.429Z,10.93
2019-05-09T10:23:14.924Z,7.47
2019-05-09T10:25:38.324Z,7.23
2019-05-09T10:28:08.725Z,9.80
2019-05-09T10:30:38.235Z,11.80
2019-05-09T10:33:09.086Z,8.80
2019-05-09T10:35:39.243Z,10.37
2019-05-09T10:38:08.698Z,8.30
2019-05-09T10:40:39.797Z,10.67
2019-05-09T10:43:30.693Z,8.10
2019-05-09T10:46:16.397Z,6.07
2019-05-09T10:48:50.262Z,10.35
2019-05-09T10:51:19.108Z,10.80
2019-05-09T10:53:48.296Z,7.83
2019-05-09T10:56:18.710Z,9.20
2019-05-09T10:58:48.219Z,8.57
2019-05-09T11:01:18.527Z,6.83
2019-05-09T11:03:48.443Z,6.40
2019-05-09T11:06:18.466Z,11.00
2019-05-09T11:08:48.076Z,8.70
2019-05-09T11:11:18.190Z,18.83
2019-05-09T11:13:48.616Z,8.77
2019-05-09T11:16:18.363Z,8.27
2019-05-09T11:18:48.209Z,6.57
2019-05-09T11:21:19.309Z,10.73
2019-05-09T11:23:48.768Z,9.87
2019-05-09T11:26:18.965Z,10.57
2019-05-09T11:28:47.638Z,7.43
2019-05-09T11:31:18.367Z,9.47
2019-05-09T11:33:48.447Z,10.53
2019-05-09T11:36:20.744Z,8.17
2019-05-09T11:38:49.391Z,7.73
2019-05-09T11:41:19.364Z,6.77
2019-05-09T11:43:48.528Z,8.07
2019-05-09T11:46:18.094Z,8.93
2019-05-09T11:48:47.293Z,9.60
2019-05-09T11:51:20.405Z,10.97
2019-05-09T11:53:48.263Z,9.07
2019-05-09T11:56:17.921Z,9.27
2019-05-09T11:58:48.065Z,13.57
2019-05-09T12:01:18.846Z,10.27
2019-05-09T12:03:49.897Z,10.23
2019-05-09T12:06:19.628Z,7.03
2019-05-09T12:08:48.425Z,14.07
2019-05-09T12:11:18.183Z,11.60
2019-05-09T12:13:48.702Z,7.57
2019-05-09T12:16:18.511Z,9.87
2019-05-09T12:18:48.803Z,12.33
2019-05-09T12:21:19.436Z,9.93
2019-05-09T12:23:49.108Z,14.67
2019-05-09T12:26:18.646Z,12.95
2019-05-09T12:28:48.235Z,11.20
2019-05-09T12:31:18.099Z,12.73
2019-05-09T12:33:48.286Z,12.47
2019-05-09T12:36:19.200Z,9.28
2019-05-09T12:38:49.644Z,13.60
2019-05-09T12:41:19.256Z,11.37
2019-05-09T12:43:48.039Z,15.93
2019-05-09T12:46:16.283Z,15.00
2019-05-09T12:48:44.938Z,13.20
2019-05-09T12:51:13.752Z,14.63
2019-05-09T12:53:42.373Z,13.37
2019-05-09T12:56:12.225Z,21.43
2019-05-09T12:58:40.920Z,16.60
2019-05-09T13:01:09.904Z,18.23
2019-05-09T13:03:38.837Z,20.17
2019-05-09T13:06:08.159Z,15.63
2019-05-09T13:08:38.541Z,18.03
2019-05-09T13:11:08.077Z,19.40
2019-05-09T13:13:40.950Z,17.00
2019-05-09T13:16:42.643Z,22.30
2019-05-09T13:19:07.034Z,17.87
2019-05-09T13:21:38.348Z,18.23
2019-05-09T13:24:08.334Z,18.93
2019-05-09T13:26:38.520Z,21.27
2019-05-09T13:29:08.107Z,22.98
2019-05-09T13:31:39.307Z,25.87
2019-05-09T13:34:08.018Z,24.80
2019-05-09T13:36:36.944Z,23.63
2019-05-09T13:39:08.598Z,31.63
2019-05-09T13:41:37.650Z,29.60
2019-05-09T13:44:10.839Z,17.83
2019-05-09T13:46:38.798Z,27.47
2019-05-09T13:49:12.531Z,34.50
2019-05-09T13:51:47.423Z,26.63
2019-05-09T13:54:08.219Z,33.80
2019-05-09T13:56:36.802Z,30.20
2019-05-09T13:59:08.036Z,24.80
2019-05-09T14:01:37.807Z,29.30
2019-05-09T14:04:07.972Z,31.20
2019-05-09T14:06:38.712Z,32.50
2019-05-09T14:09:10.357Z,28.17
2019-05-09T14:11:38.538Z,32.37
2019-05-09T14:14:07.279Z,32.07
2019-05-09T14:16:38.747Z,33.17
2019-05-09T14:19:26.013Z,27.10
2019-05-09T14:21:36.729Z,35.77
2019-05-09T14:24:12.236Z,32.97
2019-05-09T14:26:35.800Z,34.33
2019-05-09T14:29:04.409Z,33.07
2019-05-09T14:31:32.937Z,30.27
2019-05-09T14:34:01.782Z,30.77
2019-05-09T14:36:30.281Z,29.93
2019-05-09T14:38:59.005Z,25.60
2019-05-09T14:41:27.951Z,23.73
2019-05-09T14:43:56.630Z,34.63
2019-05-09T14:46:25.509Z,30.70
2019-05-09T14:48:54.305Z,30.27
2019-05-09T14:51:23.065Z,40.43
2019-05-09T14:53:51.924Z,30.27
2019-05-09T14:56:20.390Z,29.60
2019-05-09T14:58:49.413Z,33.17
2019-05-09T15:01:19.433Z,28.17
2019-05-09T15:03:48.620Z,23.10
2019-05-09T15:06:18.213Z,29.10
2019-05-09T15:08:48.252Z,31.47
2019-05-09T15:11:18.224Z,42.40
2019-05-09T15:13:47.770Z,31.47
2019-05-09T15:16:18.405Z,38.17
2019-05-09T15:18:48.628Z,36.73
2019-05-09T15:21:19.157Z,32.83
2019-05-09T15:23:48.189Z,28.63
2019-05-09T15:26:17.679Z,38.60
2019-05-09T15:28:48.358Z,31.47
2019-05-09T15:31:18.461Z,33.40
2019-05-09T15:33:48.658Z,35.13
2019-05-09T15:36:19.320Z,27.13
2019-05-09T15:38:48.639Z,35.17
2019-05-09T15:41:18.368Z,23.70
2019-05-09T15:43:48.524Z,29.83
2019-05-09T15:46:22.753Z,32.50
2019-05-09T15:48:51.469Z,34.83
2019-05-09T15:51:20.387Z,35.00
2019-05-09T15:53:50.569Z,33.93
2019-05-09T15:56:19.294Z,37.67
2019-05-09T15:58:49.006Z,29.03
2019-05-09T16:01:18.430Z,33.93
2019-05-09T16:03:48.618Z,30.57
2019-05-09T16:06:19.994Z,33.30
2019-05-09T16:08:48.800Z,31.83
2019-05-09T16:11:18.156Z,25.23
2019-05-09T16:13:48.005Z,30.52
2019-05-09T16:16:17.520Z,37.13
2019-05-09T16:18:48.343Z,23.20
2019-05-09T16:21:16.220Z,34.00
2019-05-09T16:23:45.593Z,30.20
2019-05-09T16:26:14.197Z,40.97
2019-05-09T16:28:42.862Z,28.00
2019-05-09T16:31:11.820Z,27.07
2019-05-09T16:33:40.248Z,28.67
2019-05-09T16:36:10.250Z,42.40
2019-05-09T16:38:45.410Z,28.80
2019-05-09T16:41:09.464Z,25.27
2019-05-09T16:43:39.188Z,31.00
2019-05-09T16:46:08.222Z,26.17
2019-05-09T16:48:36.773Z,23.77
2019-05-09T16:51:07.846Z,31.37
2019-05-09T16:53:36.271Z,30.93
2019-05-09T16:56:08.037Z,29.30
2019-05-09T16:58:37.931Z,25.23
2019-05-09T17:01:08.277Z,24.23
2019-05-09T17:03:36.868Z,25.17
2019-05-09T17:06:07.657Z,26.53
2019-05-09T17:08:38.442Z,22.97
2019-05-09T17:11:07.747Z,29.73
2019-05-09T17:13:37.030Z,23.30
2019-05-09T17:16:07.438Z,30.97
2019-05-09T17:18:38.194Z,22.57
2019-05-09T17:21:37.907Z,29.80
2019-05-09T17:24:09.553Z,25.13
2019-05-09T17:26:38.071Z,31.03
2019-05-09T17:29:06.723Z,32.90
2019-05-09T17:31:38.160Z,30.17
2019-05-09T17:34:06.131Z,37.53
2019-05-09T17:36:34.934Z,33.43
2019-05-09T17:39:07.769Z,32.47
2019-05-09T17:41:37.746Z,33.90
2019-05-09T17:44:07.693Z,31.63
2019-05-09T17:46:38.629Z,38.60
2019-05-09T17:49:08.310Z,35.13
2019-05-09T17:51:37.493Z,39.57
2019-05-09T17:54:08.122Z,33.43
2019-05-09T17:56:37.911Z,39.50
2019-05-09T17:59:08.344Z,43.93
2019-05-09T18:01:36.451Z,39.70
2019-05-09T18:04:04.669Z,33.97
2019-05-09T18:06:33.109Z,40.03
2019-05-09T18:09:01.818Z,39.70
2019-05-09T18:11:30.929Z,42.47
2019-05-09T18:13:59.908Z,33.97
2019-05-09T18:16:28.709Z,37.10
2019-05-09T18:18:58.997Z,37.07
2019-05-09T18:21:28.333Z,38.90
2019-05-09T18:23:58.692Z,42.23
2019-05-09T18:26:28.005Z,40.00
2019-05-09T18:28:59.397Z,35.73
2019-05-09T18:31:34.665Z,46.10
2019-05-09T18:34:03.410Z,36.73
2019-05-09T18:36:32.314Z,42.73
2019-05-09T18:39:01.074Z,39.27
2019-05-09T18:41:29.947Z,50.33
2019-05-09T18:43:58.489Z,33.93
2019-05-09T18:46:28.033Z,43.87
2019-05-09T18:48:56.930Z,39.37
2019-05-09T18:51:28.504Z,46.97
2019-05-09T18:53:56.026Z,42.20
2019-05-09T18:56:24.543Z,32.93
2019-05-09T18:58:53.414Z,47.57
2019-05-09T19:01:22.689Z,42.53
2019-05-09T19:03:51.511Z,37.07
2019-05-09T19:06:20.637Z,37.03
2019-05-09T19:08:50.206Z,39.10
2019-05-09T19:11:19.052Z,42.27
2019-05-09T19:13:48.536Z,38.10
2019-05-09T19:16:52.412Z,41.33
2019-05-09T19:19:43.934Z,42.33
2019-05-09T19:22:22.063Z,41.83
2019-05-09T19:24:43.994Z,45.63
2019-05-09T19:27:12.442Z,45.33
2019-05-09T19:29:41.396Z,43.33
2019-05-09T19:32:10.340Z,39.73
2019-05-09T19:34:38.986Z,40.50
2019-05-09T19:37:07.706Z,42.80
2019-05-09T19:39:36.430Z,46.37
2019-05-09T19:42:07.039Z,46.27
2019-05-09T19:44:35.642Z,47.43
2019-05-09T19:47:05.162Z,47.83
2019-05-09T19:49:34.238Z,45.83
2019-05-09T19:52:02.620Z,43.63
2019-05-09T19:54:31.780Z,39.20
2019-05-09T19:57:01.482Z,49.60
2019-05-09T19:59:30.333Z,46.60
2019-05-09T20:01:59.346Z,38.93
2019-05-09T20:04:29.145Z,41.40
2019-05-09T20:06:58.380Z,42.20
2019-05-09T20:09:36.896Z,51.90
2019-05-09T20:12:24.329Z,40.67
2019-05-09T20:14:54.610Z,53.60
2019-05-09T20:17:23.871Z,48.20
2019-05-09T20:19:54.012Z,47.20
2019-05-09T20:22:22.808Z,52.53
2019-05-09T20:24:51.771Z,53.17
2019-05-09T20:27:21.439Z,51.17
2019-05-09T20:29:50.827Z,52.63
2019-05-09T20:32:19.781Z,48.30
2019-05-09T20:34:49.437Z,45.17
2019-05-09T20:37:18.970Z,52.63
2019-05-09T20:39:48.224Z,42.37
2019-05-09T20:42:17.948Z,42.00
2019-05-09T20:44:48.619Z,46.57
2019-05-09T20:47:18.171Z,42.50
2019-05-09T20:49:47.450Z,45.97
2019-05-09T20:52:24.429Z,49.77
2019-05-09T20:54:53.322Z,46.27
2019-05-09T20:57:22.584Z,49.77
2019-05-09T20:59:51.197Z,52.73
2019-05-09T21:02:22.139Z,45.23
2019-05-09T21:04:51.076Z,51.50
2019-05-09T21:07:20.917Z,45.23
2019-05-09T21:09:50.853Z,39.40
2019-05-09T21:12:19.382Z,45.50
2019-05-09T21:14:48.294Z,41.80
2019-05-09T21:17:16.826Z,50.47
2019-05-09T21:19:45.536Z,46.70
2019-05-09T21:22:13.986Z,48.73
2019-05-09T21:24:42.297Z,49.93
2019-05-09T21:27:10.704Z,49.57
2019-05-09T21:29:42.776Z,53.47
2019-05-09T21:32:11.403Z,43.97
2019-05-09T21:34:40.309Z,50.53
2019-05-09T21:37:09.801Z,41.20
2019-05-09T21:39:38.142Z,44.63
2019-05-09T21:42:06.999Z,49.63
2019-05-09T21:44:35.814Z,42.47
2019-05-09T21:47:04.337Z,51.17
2019-05-09T21:49:33.076Z,46.53
2019-05-09T21:52:01.449Z,44.20
2019-05-09T21:54:30.106Z,57.20
2019-05-09T21:56:58.588Z,42.20
2019-05-09T21:59:27.313Z,47.87
2019-05-09T22:01:56.966Z,46.40
2019-05-09T22:04:25.558Z,41.70
2019-05-09T22:06:53.801Z,56.63
2019-05-09T22:09:22.226Z,44.77
2019-05-09T22:11:50.929Z,44.83
2019-05-09T22:14:19.814Z,52.93
2019-05-09T22:16:48.741Z,42.10
2019-05-09T22:19:18.030Z,46.67
2019-05-09T22:21:46.603Z,42.83
2019-05-09T22:24:15.402Z,45.87
2019-05-09T22:26:44.139Z,38.77
2019-05-09T22:29:12.761Z,45.07
2019-05-09T22:31:41.301Z,40.83
2019-05-09T22:34:10.165Z,39.87
2019-05-09T22:36:38.774Z,46.75
2019-05-09T22:39:07.766Z,40.70
2019-05-09T22:41:36.521Z,46.80
2019-05-09T22:44:05.567Z,42.07
2019-05-09T22:46:34.213Z,41.50
2019-05-09T22:49:04.729Z,36.13
2019-05-09T22:51:34.178Z,44.27
2019-05-09T22:54:12.362Z,38.43
2019-05-09T22:56:33.458Z,36.97
2019-05-09T22:59:02.038Z,42.40
2019-05-09T23:01:30.497Z,41.60
2019-05-09T23:03:59.006Z,39.83
2019-05-09T23:06:28.018Z,35.77
2019-05-09T23:08:57.278Z,40.80
2019-05-09T23:11:26.286Z,50.07
2019-05-09T23:13:55.022Z,38.73
2019-05-09T23:16:24.352Z,41.93
2019-05-09T23:18:53.025Z,38.37
2019-05-09T23:21:22.228Z,34.53
2019-05-09T23:24:28.222Z,38.23
2019-05-09T23:26:47.059Z,42.57
2019-05-09T23:29:15.702Z,33.40
2019-05-09T23:31:52.670Z,35.87
2019-05-09T23:34:21.199Z,42.17
2019-05-09T23:36:49.516Z,34.87
2019-05-09T23:39:29.198Z,42.33
2019-05-09T23:41:57.777Z,34.03
2019-05-09T23:44:26.251Z,34.83
2019-05-09T23:46:54.818Z,37.53
2019-05-09T23:49:23.135Z,33.77
2019-05-09T23:51:51.465Z,34.70
2019-05-09T23:54:47.437Z,41.88
2019-05-09T23:57:27.727Z,40.57
